• Join FlightAware (Why Join?)
  • Login
  • US Flag 
07:29AM EST


 

Airport Tracker/Info


-or-


 

Live Flight TrackerFlight Track Log ✈ AAY844 ✈ 16-Jun-2014 ✈ KPIE - KSWF

Flight Track Log - Related Links

Times and Time Zones

All times are in EDT time to prevent confusion due to time zone crossing. See the AAY844 flight status page for this flight to view local times or setup timezone preferences in your user account.

Time Position Orientation Groundspeed Altitude Reporting Facility
EDT Latitude Longitude Course Direction KTS MPH feet Rate Location/Type
02:53PM 27.9167 -82.6833 North 156 180 500  Level Tampa TRACON
02:54PM 27.9667 -82.7167 330° Northwest 198 228 2,700 1,980 Climbing Tampa TRACON
02:55PM 28.0333 -82.7500 336° Northwest 268 308 4,300 1,140 Climbing Tampa TRACON
02:56PM 28.1000 -82.7500 360° North 273 314 5,000 1,800 Climbing Tampa TRACON
02:57PM 28.1833 -82.7667 350° North 261 300 7,900 1,860 Climbing Tampa TRACON
02:59PM 28.6012 -82.6470 North  Level FlightAware Approximate
02:59PM 28.2953 -82.7475 North 280 322 10,000  Level Miami Center
03:00PM 28.3919 -82.7392 North 329 379 11,600 2,040 Climbing Miami Center
03:01PM 28.5161 -82.6989 16° North 372 428 14,200 2,340 Climbing Miami Center
03:02PM 28.6264 -82.6550 19° North 391 450 16,500 1,980 Climbing Miami Center
03:03PM 28.7356 -82.6122 19° North 408 470 18,400 1,680 Climbing Miami Center
03:04PM 28.8475 -82.5711 18° North 417 480 20,000 1,500 Climbing Miami Center
03:05PM 28.9647 -82.5408 13° North 429 494 21,600 1,440 Climbing Miami Center
03:06PM 29.0869 -82.5133 11° North 443 510 23,000 1,380 Climbing Miami Center
03:07PM 29.2142 -82.5189 358° North 464 534 24,500 1,440 Climbing Miami Center
03:08PM 29.3642 -82.5400 353° North 458 527 26,000 720 Climbing Jacksonville Center
03:09PM 29.4936 -82.5539 355° North 463 533 26,000 900 Level Jacksonville Center
03:10PM 29.6189 -82.5678 354° North 463 533 27,900 1,620 Climbing Jacksonville Center
03:11PM 29.7464 -82.5839 354° North 463 533 29,300 1,320 Climbing Jacksonville Center
03:12PM 29.8694 -82.6003 353° North 458 527 30,600 1,020 Climbing Jacksonville Center
03:13PM 29.9906 -82.6167 353° North 444 511 31,400 900 Climbing Jacksonville Center
03:14PM 30.1117 -82.6356 352° North 444 511 32,400 780 Climbing Jacksonville Center
03:15PM 30.2286 -82.6475 355° North 437 503 33,000 300 Climbing Jacksonville Center
03:16PM 30.3478 -82.6639 353° North 431 496 33,000  Level Jacksonville Center
03:17PM 30.4689 -82.6589 North 431 496 33,000  Level Jacksonville Center
03:18PM 30.5564 -82.5911 34° Northeast 396 456 33,000  Level Jacksonville Center
03:19PM 30.6458 -82.4942 43° Northeast 410 472 33,000  Level Jacksonville Center
03:20PM 30.7333 -82.3994 43° Northeast 417 480 33,000  Level Jacksonville Center
03:21PM 30.8225 -82.3047 42° Northeast 422 486 33,000  Level Jacksonville Center
03:22PM 30.9119 -82.2097 42° Northeast 427 491 33,000  Level Jacksonville Center
03:23PM 30.9992 -82.1169 42° Northeast 427 491 33,000 -60 Level Jacksonville Center
03:24PM 31.0903 -82.0242 41° Northeast 427 491 32,900  Descending Jacksonville Center
03:25PM 31.1817 -81.9261 43° Northeast 432 497 33,000  Climbing Jacksonville Center
03:26PM 31.2706 -81.8303 43° Northeast 432 497 33,000  Level Jacksonville Center
03:27PM 31.3594 -81.7344 43° Northeast 432 497 33,000  Level Jacksonville Center
03:28PM 31.4544 -81.6286 44° Northeast 427 491 33,000  Level Jacksonville Center
03:29PM 31.5372 -81.5422 42° Northeast 427 491 33,000  Level Jacksonville Center
03:30PM 31.6342 -81.4333 44° Northeast 427 491 33,000  Level Jacksonville Center
03:31PM 31.7228 -81.3392 42° Northeast 434 499 33,000  Level Jacksonville Center
03:32PM 31.8050 -81.2472 44° Northeast 434 499 33,000  Level Jacksonville Center
03:33PM 31.9000 -81.1575 39° Northeast 434 499 33,000  Level Jacksonville Center
03:34PM 31.9992 -81.0797 34° Northeast 434 499 33,000  Level Jacksonville Center
03:35PM 32.1125 -80.9867 35° Northeast 446 513 33,000  Level Jacksonville Center
03:36PM 32.2136 -80.9111 32° Northeast 433 498 33,000  Level Jacksonville Center
03:37PM 32.2958 -80.8306 40° Northeast 433 498 33,000  Level Jacksonville Center
03:38PM 32.3861 -80.7325 43° Northeast 433 498 33,000  Level Jacksonville Center
03:39PM 32.4719 -80.6319 45° Northeast 428 493 33,000 -60 Level Jacksonville Center
03:40PM 32.5600 -80.5314 44° Northeast 428 493 32,900  Descending Jacksonville Center
03:41PM 32.6458 -80.4328 44° Northeast 428 493 33,000  Climbing Jacksonville Center
03:42PM 32.7314 -80.3317 45° Northeast 428 493 32,900  Descending Jacksonville Center
03:43PM 32.8128 -80.2256 48° Northeast 423 487 33,000  Climbing Jacksonville Center
03:44PM 32.8939 -80.1169 48° Northeast 423 487 33,000 -60 Level Jacksonville Center
03:45PM 32.9914 -80.0000 45° Northeast 437 503 32,900  Descending Jacksonville Center
03:46PM 33.0981 -79.9219 32° Northeast 443 510 33,000  Climbing Jacksonville Center
03:47PM 33.2047 -79.8442 31° Northeast 443 510 32,900  Descending Jacksonville Center
03:48PM 33.3114 -79.7683 31° Northeast 443 510 33,000  Climbing Jacksonville Center
03:49PM 33.4181 -79.6875 32° Northeast 443 510 33,000  Level Jacksonville Center
03:50PM 33.5225 -79.6089 32° Northeast 438 504 33,000  Level Jacksonville Center
03:51PM 33.6289 -79.5278 32° Northeast 443 510 33,000  Level Jacksonville Center
03:52PM 33.7353 -79.4511 31° Northeast 443 510 33,000 -60 Level Jacksonville Center
03:53PM 33.8272 -79.3825 32° Northeast 437 503 32,900  Descending Jacksonville Center
03:54PM 33.9333 -79.3008 33° Northeast 442 509 33,000  Climbing Jacksonville Center
03:55PM 34.0417 -79.2211 31° Northeast 447 514 32,900  Descending Jacksonville Center
03:57PM 34.3000 -79.0258 32° Northeast 464 534 33,000  Climbing Washington Center
03:58PM 34.4022 -78.9447 33° Northeast 453 521 33,000  Level Washington Center
03:59PM 34.5089 -78.8633 32° Northeast 453 521 33,000  Level Washington Center
04:00PM 34.6028 -78.7864 34° Northeast 448 516 33,000  Level Washington Center
04:01PM 34.7200 -78.6975 32° Northeast 448 516 33,000  Level Washington Center
04:02PM 34.8136 -78.6225 33° Northeast 448 516 33,000  Level Washington Center
04:03PM 34.9181 -78.5403 33° Northeast 443 510 33,000  Level Washington Center
04:04PM 35.0242 -78.4581 32° Northeast 448 516 33,000  Level Washington Center
04:05PM 35.1328 -78.3706 33° Northeast 448 516 33,000  Level Washington Center
04:06PM 35.2411 -78.2878 32° Northeast 448 516 33,000  Level Washington Center
04:07PM 35.3472 -78.1997 34° Northeast 448 516 33,000  Level Washington Center
04:08PM 35.4661 -78.1092 32° Northeast 454 522 33,000  Level Washington Center
04:09PM 35.5764 -78.0233 32° Northeast 454 522 33,000  Level Washington Center
04:10PM 35.6844 -77.9394 32° Northeast 454 522 33,000  Level Washington Center
04:11PM 35.7903 -77.8556 33° Northeast 454 522 33,000  Level Washington Center
04:12PM 35.8983 -77.7717 32° Northeast 454 522 33,000  Level Washington Center
04:13PM 36.0022 -77.6819 35° Northeast 454 522 33,000  Level Washington Center
04:14PM 36.1042 -77.5844 38° Northeast 454 522 33,000  Level Washington Center
04:15PM 36.2058 -77.4892 37° Northeast 459 528 33,000  Level Washington Center
04:16PM 36.2967 -77.4089 35° Northeast 448 516 33,000  Level Washington Center
04:17PM 36.3961 -77.3131 38° Northeast 448 516 33,000  Level Washington Center
04:18PM 36.5017 -77.2197 35° Northeast 448 516 33,000  Level Washington Center
04:19PM 36.6031 -77.1261 37° Northeast 453 521 33,000  Level Washington Center
04:20PM 36.7067 -77.0297 37° Northeast 458 527 33,000  Level Washington Center
04:21PM 36.8100 -76.9331 37° Northeast 458 527 33,000  Level Washington Center
04:22PM 36.9131 -76.8389 36° Northeast 458 527 33,000  Level Washington Center
04:23PM 37.0269 -76.7339 36° Northeast 458 527 33,000  Level Washington Center
04:24PM 37.1319 -76.6367 36° Northeast 458 527 33,000  Level Washington Center
04:25PM 37.2350 -76.5414 36° Northeast 458 527 33,000  Level Washington Center
04:26PM 37.3381 -76.4461 36° Northeast 458 527 33,000  Level Washington Center
04:27PM 37.4428 -76.3503 36° Northeast 458 527 33,000  Level Washington Center
04:28PM 37.5478 -76.2519 37° Northeast 458 527 33,000  Level Washington Center
04:29PM 37.6506 -76.1558 37° Northeast 458 527 33,000  Level Washington Center
04:30PM 37.7592 -76.0647 34° Northeast 458 527 33,000  Level Washington Center
04:31PM 37.8619 -75.9625 38° Northeast 458 527 33,000  Level Washington Center
04:32PM 37.9558 -75.8736 37° Northeast 467 537 33,000  Level Washington Center
04:33PM 38.0603 -75.7764 36° Northeast 467 537 33,000  Level Washington Center
04:34PM 38.1669 -75.6764 36° Northeast 462 532 33,000 -60 Level Washington Center
04:35PM 38.2692 -75.5786 37° Northeast 462 532 32,900  Descending Washington Center
04:36PM 38.3817 -75.4964 30° Northeast 457 526 33,000  Climbing Washington Center
04:37PM 38.5003 -75.4431 19° North 458 527 33,000  Level Washington Center
04:38PM 38.6233 -75.3978 16° North 452 520 33,000  Level Washington Center
04:39PM 38.7442 -75.3467 18° North 447 514 33,000  Level Washington Center
04:40PM 38.8650 -75.2958 18° North 453 521 33,000  Level Washington Center
04:41PM 38.9900 -75.2417 19° North 453 521 33,000  Level Washington Center
04:42PM 39.1253 -75.1794 20° North 460 529 33,000  Level Washington Center
04:43PM 39.2206 -75.0906 36° Northeast 465 535 33,000  Level Washington Center
04:44PM 39.3389 -74.9825 35° Northeast 477 549 33,000 -60 Level Washington Center
04:46PM 39.4931 -74.8411 35° Northeast 473 544 32,900  Descending New York Center
04:47PM 39.6003 -74.7475 34° Northeast 468 539 33,000  Climbing New York Center
04:48PM 39.7144 -74.6381 36° Northeast 468 539 33,000  Level New York Center
04:49PM 39.8156 -74.5492 34° Northeast 468 539 33,000  Level New York Center
04:50PM 39.9189 -74.4464 37° Northeast 468 539 33,000  Level New York Center
04:51PM 40.0219 -74.3489 36° Northeast 468 539 33,000  Level New York Center
04:52PM 40.1131 -74.2286 45° Northeast 462 532 33,000 -300 Level New York Center
04:53PM 40.2042 -74.1028 47° Northeast 462 532 32,500 -900 Descending New York Center
04:54PM 40.2869 -73.9733 50° Northeast 467 537 31,200 -1,800 Descending New York Center
04:55PM 40.3578 -73.8214 59° Northeast 473 544 29,000 -2,280 Descending New York Center
04:56PM 40.4281 -73.6719 58° Northeast 480 552 26,700 -2,340 Descending New York Center
04:58PM 40.6911 -73.4028 38° Northeast 446 513 20,900 -2,160 Descending Boston Center
04:59PM 40.7739 -73.3231 36° Northeast 430 495 19,300 -960 Descending Boston Center
05:00PM 40.8739 -73.2100 41° Northeast 420 483 19,000 -780 Descending Boston Center
05:02PM 40.9764 -73.1408 27° Northeast 415 478 17,800 -1,440 Descending Boston Center
05:03PM 41.0808 -73.1714 348° North 386 444 16,100 -1,500 Descending Boston Center
05:04PM 41.1761 -73.2281 336° Northwest 379 436 14,800 -1,800 Descending Boston Center
05:05PM 41.2806 -73.2936 335° Northwest 376 433 12,500 -1,860 Descending Boston Center
05:06PM 41.3814 -73.3556 335° Northwest 370 426 11,000 -780 Descending Boston Center
05:07PM 41.4661 -73.4081 335° Northwest 342 394 11,000 -60 Level Boston Center
05:08PM 41.5486 -73.4592 335° Northwest 333 383 10,900 -600 Descending Boston Center
05:09PM 41.5969 -73.5583 303° West 303 349 9,900 -960 Descending Boston Center
05:10PM 41.6219 -73.6544 289° West 278 320 8,900 -1,380 Descending Boston Center
05:11PM 41.6475 -73.7517 289° West 262 302 7,100 -1,740 Descending Boston Center
05:12PM 41.6561 -73.8444 277° West 256 295 5,500 -1,200 Descending Boston Center
05:14PM 41.5500 -73.9833 224° Southwest 209 241 3,300 -1,140 Descending New York TRACON
05:15PM 41.5167 -74.0167 217° Southwest 158 182 2,000 -1,200 Descending New York TRACON
05:16PM 41.5167 -74.0667 270° West 145 167 900 -1,140 Descending New York TRACON
05:18PM 41.5000 -74.1000 217° Southwest  Level FlightAware Approximate
05:25PM 41.5041 -74.1048 217° Southwest  Level Estimated